sensor_id;sensor_type;location;lat;lon;timestamp;temperature;humidity
77496;SHT31;66600;48.378;9.948;2023-12-14T00:00:21;3.48;96.89
77496;SHT31;66600;48.378;9.948;2023-12-14T00:00:51;3.52;96.90
77496;SHT31;66600;48.378;9.948;2023-12-14T00:01:22;3.52;96.88
77496;SHT31;66600;48.378;9.948;2023-12-14T00:01:52;3.52;96.87
77496;SHT31;66600;48.378;9.948;2023-12-14T00:02:22;3.51;96.90
77496;SHT31;66600;48.378;9.948;2023-12-14T00:02:52;3.55;96.86
77496;SHT31;66600;48.378;9.948;2023-12-14T00:03:23;3.56;96.82
77496;SHT31;66600;48.378;9.948;2023-12-14T00:03:53;3.60;96.83
77496;SHT31;66600;48.378;9.948;2023-12-14T00:04:23;3.62;96.78
77496;SHT31;66600;48.378;9.948;2023-12-14T00:04:53;3.63;96.71
77496;SHT31;66600;48.378;9.948;2023-12-14T00:05:24;3.63;96.67
77496;SHT31;66600;48.378;9.948;2023-12-14T00:05:54;3.60;96.70
77496;SHT31;66600;48.378;9.948;2023-12-14T00:06:24;3.65;96.76
77496;SHT31;66600;48.378;9.948;2023-12-14T00:06:55;3.65;96.80
77496;SHT31;66600;48.378;9.948;2023-12-14T00:07:25;3.68;96.77
77496;SHT31;66600;48.378;9.948;2023-12-14T00:07:55;3.68;96.73
77496;SHT31;66600;48.378;9.948;2023-12-14T00:08:25;3.68;96.76
77496;SHT31;66600;48.378;9.948;2023-12-14T00:08:56;3.68;96.77
77496;SHT31;66600;48.378;9.948;2023-12-14T00:09:26;3.70;96.74
77496;SHT31;66600;48.378;9.948;2023-12-14T00:09:56;3.68;96.78
77496;SHT31;66600;48.378;9.948;2023-12-14T00:10:26;3.66;96.77
77496;SHT31;66600;48.378;9.948;2023-12-14T00:10:57;3.69;96.82
77496;SHT31;66600;48.378;9.948;2023-12-14T00:11:27;3.68;96.82
77496;SHT31;66600;48.378;9.948;2023-12-14T00:11:57;3.70;96.89
77496;SHT31;66600;48.378;9.948;2023-12-14T00:12:27;3.69;96.87
77496;SHT31;66600;48.378;9.948;2023-12-14T00:12:58;3.70;96.87
77496;SHT31;66600;48.378;9.948;2023-12-14T00:13:28;3.69;96.98
77496;SHT31;66600;48.378;9.948;2023-12-14T00:13:58;3.68;96.99
77496;SHT31;66600;48.378;9.948;2023-12-14T00:14:28;3.68;97.04
77496;SHT31;66600;48.378;9.948;2023-12-14T00:14:59;3.70;97.06
77496;SHT31;66600;48.378;9.948;2023-12-14T00:15:29;3.72;97.01
77496;SHT31;66600;48.378;9.948;2023-12-14T00:15:59;3.75;96.99
77496;SHT31;66600;48.378;9.948;2023-12-14T00:16:30;3.72;96.90
77496;SHT31;66600;48.378;9.948;2023-12-14T00:17:00;3.75;96.88
77496;SHT31;66600;48.378;9.948;2023-12-14T00:17:30;3.73;96.91
77496;SHT31;66600;48.378;9.948;2023-12-14T00:18:00;3.73;96.94
77496;SHT31;66600;48.378;9.948;2023-12-14T00:18:31;3.75;96.91
77496;SHT31;66600;48.378;9.948;2023-12-14T00:19:01;3.73;96.91
77496;SHT31;66600;48.378;9.948;2023-12-14T00:19:32;3.72;96.86
77496;SHT31;66600;48.378;9.948;2023-12-14T00:20:03;3.72;97.13
77496;SHT31;66600;48.378;9.948;2023-12-14T00:20:33;3.70;97.09
77496;SHT31;66600;48.378;9.948;2023-12-14T00:21:03;3.69;97.10
77496;SHT31;66600;48.378;9.948;2023-12-14T00:21:34;3.66;97.23
77496;SHT31;66600;48.378;9.948;2023-12-14T00:22:04;3.65;97.37
77496;SHT31;66600;48.378;9.948;2023-12-14T00:22:34;3.65;97.40
77496;SHT31;66600;48.378;9.948;2023-12-14T00:23:05;3.68;97.43
77496;SHT31;66600;48.378;9.948;2023-12-14T00:23:35;3.66;97.56
77496;SHT31;66600;48.378;9.948;2023-12-14T00:24:06;3.65;97.62
77496;SHT31;66600;48.378;9.948;2023-12-14T00:24:36;3.66;97.64
77496;SHT31;66600;48.378;9.948;2023-12-14T00:25:06;3.63;97.74
77496;SHT31;66600;48.378;9.948;2023-12-14T00:25:37;3.65;97.75
77496;SHT31;66600;48.378;9.948;2023-12-14T00:26:07;3.65;97.95
77496;SHT31;66600;48.378;9.948;2023-12-14T00:26:37;3.65;97.90
77496;SHT31;66600;48.378;9.948;2023-12-14T00:27:07;3.62;97.87
77496;SHT31;66600;48.378;9.948;2023-12-14T00:27:38;3.62;97.92
77496;SHT31;66600;48.378;9.948;2023-12-14T00:28:08;3.65;97.91
77496;SHT31;66600;48.378;9.948;2023-12-14T00:28:38;3.63;97.90
77496;SHT31;66600;48.378;9.948;2023-12-14T00:29:08;3.63;97.95
77496;SHT31;66600;48.378;9.948;2023-12-14T00:29:39;3.63;98.15
77496;SHT31;66600;48.378;9.948;2023-12-14T00:30:09;3.62;98.10
77496;SHT31;66600;48.378;9.948;2023-12-14T00:30:39;3.66;98.05
77496;SHT31;66600;48.378;9.948;2023-12-14T00:31:10;3.62;97.98
77496;SHT31;66600;48.378;9.948;2023-12-14T00:31:40;3.65;97.97
77496;SHT31;66600;48.378;9.948;2023-12-14T00:32:10;3.65;98.07
77496;SHT31;66600;48.378;9.948;2023-12-14T00:32:41;3.65;98.13
77496;SHT31;66600;48.378;9.948;2023-12-14T00:33:11;3.63;98.22
77496;SHT31;66600;48.378;9.948;2023-12-14T00:33:41;3.66;98.09
77496;SHT31;66600;48.378;9.948;2023-12-14T00:34:11;3.68;98.04
77496;SHT31;66600;48.378;9.948;2023-12-14T00:34:42;3.69;98.06
77496;SHT31;66600;48.378;9.948;2023-12-14T00:35:12;3.68;98.12
77496;SHT31;66600;48.378;9.948;2023-12-14T00:35:42;3.68;98.16
77496;SHT31;66600;48.378;9.948;2023-12-14T00:36:19;3.66;98.13
77496;SHT31;66600;48.378;9.948;2023-12-14T00:36:49;3.65;98.11
77496;SHT31;66600;48.378;9.948;2023-12-14T00:37:19;3.70;98.01
77496;SHT31;66600;48.378;9.948;2023-12-14T00:37:50;3.69;97.98
77496;SHT31;66600;48.378;9.948;2023-12-14T00:38:20;3.69;97.86
77496;SHT31;66600;48.378;9.948;2023-12-14T00:38:50;3.73;97.82
77496;SHT31;66600;48.378;9.948;2023-12-14T00:39:20;3.72;97.79
77496;SHT31;66600;48.378;9.948;2023-12-14T00:39:51;3.70;97.74
77496;SHT31;66600;48.378;9.948;2023-12-14T00:40:21;3.68;97.76
77496;SHT31;66600;48.378;9.948;2023-12-14T00:40:51;3.69;97.80
77496;SHT31;66600;48.378;9.948;2023-12-14T00:41:22;3.65;97.95
77496;SHT31;66600;48.378;9.948;2023-12-14T00:41:52;3.65;98.04
77496;SHT31;66600;48.378;9.948;2023-12-14T00:42:22;3.62;98.04
77496;SHT31;66600;48.378;9.948;2023-12-14T00:42:53;3.63;98.01
77496;SHT31;66600;48.378;9.948;2023-12-14T00:43:23;3.63;98.15
77496;SHT31;66600;48.378;9.948;2023-12-14T00:43:53;3.62;98.17
77496;SHT31;66600;48.378;9.948;2023-12-14T00:44:23;3.63;98.18
77496;SHT31;66600;48.378;9.948;2023-12-14T00:44:54;3.66;98.13
77496;SHT31;66600;48.378;9.948;2023-12-14T00:45:24;3.63;98.08
77496;SHT31;66600;48.378;9.948;2023-12-14T00:45:54;3.66;98.09
77496;SHT31;66600;48.378;9.948;2023-12-14T00:46:24;3.66;98.22
77496;SHT31;66600;48.378;9.948;2023-12-14T00:46:55;3.68;98.11
77496;SHT31;66600;48.378;9.948;2023-12-14T00:47:25;3.65;98.13
77496;SHT31;66600;48.378;9.948;2023-12-14T00:47:55;3.62;98.20
77496;SHT31;66600;48.378;9.948;2023-12-14T00:48:25;3.62;98.23
77496;SHT31;66600;48.378;9.948;2023-12-14T00:48:56;3.63;98.23
77496;SHT31;66600;48.378;9.948;2023-12-14T00:49:26;3.60;98.19
77496;SHT31;66600;48.378;9.948;2023-12-14T00:49:58;3.63;98.26
77496;SHT31;66600;48.378;9.948;2023-12-14T00:50:28;3.60;98.34
77496;SHT31;66600;48.378;9.948;2023-12-14T00:50:59;3.62;98.35
77496;SHT31;66600;48.378;9.948;2023-12-14T00:51:29;3.62;98.30
77496;SHT31;66600;48.378;9.948;2023-12-14T00:51:59;3.63;98.32
77496;SHT31;66600;48.378;9.948;2023-12-14T00:52:29;3.63;98.31
77496;SHT31;66600;48.378;9.948;2023-12-14T00:53:00;3.60;98.30
77496;SHT31;66600;48.378;9.948;2023-12-14T00:53:30;3.65;98.22
77496;SHT31;66600;48.378;9.948;2023-12-14T00:54:00;3.63;98.26
77496;SHT31;66600;48.378;9.948;2023-12-14T00:54:31;3.63;98.19
77496;SHT31;66600;48.378;9.948;2023-12-14T00:55:01;3.63;98.14
77496;SHT31;66600;48.378;9.948;2023-12-14T00:55:31;3.63;98.14
77496;SHT31;66600;48.378;9.948;2023-12-14T00:56:01;3.65;98.13
77496;SHT31;66600;48.378;9.948;2023-12-14T00:56:32;3.63;98.14
77496;SHT31;66600;48.378;9.948;2023-12-14T00:57:02;3.62;98.16
77496;SHT31;66600;48.378;9.948;2023-12-14T00:57:33;3.63;98.19
77496;SHT31;66600;48.378;9.948;2023-12-14T00:58:03;3.62;98.23
77496;SHT31;66600;48.378;9.948;2023-12-14T00:58:33;3.62;98.20
77496;SHT31;66600;48.378;9.948;2023-12-14T00:59:03;3.62;98.20
77496;SHT31;66600;48.378;9.948;2023-12-14T00:59:34;3.62;98.18
77496;SHT31;66600;48.378;9.948;2023-12-14T01:00:04;3.62;98.15
77496;SHT31;66600;48.378;9.948;2023-12-14T01:00:34;3.63;98.18
77496;SHT31;66600;48.378;9.948;2023-12-14T01:01:05;3.63;98.13
77496;SHT31;66600;48.378;9.948;2023-12-14T01:01:35;3.60;98.13
77496;SHT31;66600;48.378;9.948;2023-12-14T01:02:05;3.63;98.14
77496;SHT31;66600;48.378;9.948;2023-12-14T01:02:36;3.60;98.21
77496;SHT31;66600;48.378;9.948;2023-12-14T01:03:07;3.62;98.20
77496;SHT31;66600;48.378;9.948;2023-12-14T01:03:37;3.60;98.20
77496;SHT31;66600;48.378;9.948;2023-12-14T01:04:07;3.60;98.33
77496;SHT31;66600;48.378;9.948;2023-12-14T01:04:38;3.59;98.48
77496;SHT31;66600;48.378;9.948;2023-12-14T01:05:08;3.59;98.65
77496;SHT31;66600;48.378;9.948;2023-12-14T01:05:38;3.58;98.58
77496;SHT31;66600;48.378;9.948;2023-12-14T01:06:08;3.59;98.54
77496;SHT31;66600;48.378;9.948;2023-12-14T01:06:39;3.59;98.48
77496;SHT31;66600;48.378;9.948;2023-12-14T01:07:09;3.59;98.55
77496;SHT31;66600;48.378;9.948;2023-12-14T01:07:39;3.62;98.53
77496;SHT31;66600;48.378;9.948;2023-12-14T01:08:10;3.62;98.43
77496;SHT31;66600;48.378;9.948;2023-12-14T01:08:40;3.58;98.50
77496;SHT31;66600;48.378;9.948;2023-12-14T01:09:10;3.59;98.58
77496;SHT31;66600;48.378;9.948;2023-12-14T01:09:40;3.58;98.59
77496;SHT31;66600;48.378;9.948;2023-12-14T01:10:11;3.58;98.65
77496;SHT31;66600;48.378;9.948;2023-12-14T01:10:41;3.54;98.84
77496;SHT31;66600;48.378;9.948;2023-12-14T01:11:11;3.56;98.84
77496;SHT31;66600;48.378;9.948;2023-12-14T01:11:42;3.56;98.70
77496;SHT31;66600;48.378;9.948;2023-12-14T01:12:12;3.56;98.66
77496;SHT31;66600;48.378;9.948;2023-12-14T01:12:42;3.56;98.61
77496;SHT31;66600;48.378;9.948;2023-12-14T01:13:12;3.56;98.72
77496;SHT31;66600;48.378;9.948;2023-12-14T01:13:43;3.55;98.83
77496;SHT31;66600;48.378;9.948;2023-12-14T01:14:13;3.55;98.82
77496;SHT31;66600;48.378;9.948;2023-12-14T01:14:43;3.56;98.77
77496;SHT31;66600;48.378;9.948;2023-12-14T01:15:14;3.56;98.74
77496;SHT31;66600;48.378;9.948;2023-12-14T01:15:44;3.56;98.70
77496;SHT31;66600;48.378;9.948;2023-12-14T01:16:14;3.56;98.71
77496;SHT31;66600;48.378;9.948;2023-12-14T01:16:45;3.56;98.70
77496;SHT31;66600;48.378;9.948;2023-12-14T01:17:15;3.55;98.72
77496;SHT31;66600;48.378;9.948;2023-12-14T01:17:45;3.55;98.77
77496;SHT31;66600;48.378;9.948;2023-12-14T01:18:15;3.56;98.75
77496;SHT31;66600;48.378;9.948;2023-12-14T01:18:47;3.56;98.71
77496;SHT31;66600;48.378;9.948;2023-12-14T01:19:17;3.51;98.72
77496;SHT31;66600;48.378;9.948;2023-12-14T01:19:47;3.52;98.70
77496;SHT31;66600;48.378;9.948;2023-12-14T01:20:17;3.51;98.82
77496;SHT31;66600;48.378;9.948;2023-12-14T01:20:48;3.51;99.04
77496;SHT31;66600;48.378;9.948;2023-12-14T01:21:18;3.49;98.95
77496;SHT31;66600;48.378;9.948;2023-12-14T01:21:48;3.48;98.89
77496;SHT31;66600;48.378;9.948;2023-12-14T01:22:19;3.51;98.93
77496;SHT31;66600;48.378;9.948;2023-12-14T01:22:49;3.48;98.88
77496;SHT31;66600;48.378;9.948;2023-12-14T01:23:19;3.49;98.92
77496;SHT31;66600;48.378;9.948;2023-12-14T01:23:49;3.48;99.00
77496;SHT31;66600;48.378;9.948;2023-12-14T01:24:20;3.46;98.93
77496;SHT31;66600;48.378;9.948;2023-12-14T01:24:50;3.42;98.96
77496;SHT31;66600;48.378;9.948;2023-12-14T01:25:20;3.43;98.96
77496;SHT31;66600;48.378;9.948;2023-12-14T01:25:50;3.45;98.94
77496;SHT31;66600;48.378;9.948;2023-12-14T01:26:21;3.42;99.14
77496;SHT31;66600;48.378;9.948;2023-12-14T01:26:51;3.42;99.09
77496;SHT31;66600;48.378;9.948;2023-12-14T01:27:21;3.42;99.08
77496;SHT31;66600;48.378;9.948;2023-12-14T01:27:52;3.41;99.13
77496;SHT31;66600;48.378;9.948;2023-12-14T01:28:22;3.41;99.28
77496;SHT31;66600;48.378;9.948;2023-12-14T01:28:52;3.39;99.32
77496;SHT31;66600;48.378;9.948;2023-12-14T01:29:22;3.38;99.19
77496;SHT31;66600;48.378;9.948;2023-12-14T01:29:53;3.35;99.13
77496;SHT31;66600;48.378;9.948;2023-12-14T01:30:23;3.38;99.14
77496;SHT31;66600;48.378;9.948;2023-12-14T01:30:53;3.35;99.12
77496;SHT31;66600;48.378;9.948;2023-12-14T01:31:24;3.34;99.14
77496;SHT31;66600;48.378;9.948;2023-12-14T01:31:54;3.35;99.11
77496;SHT31;66600;48.378;9.948;2023-12-14T01:32:25;3.35;99.04
77496;SHT31;66600;48.378;9.948;2023-12-14T01:32:55;3.36;99.00
77496;SHT31;66600;48.378;9.948;2023-12-14T01:33:25;3.34;99.03
77496;SHT31;66600;48.378;9.948;2023-12-14T01:33:55;3.32;99.05
77496;SHT31;66600;48.378;9.948;2023-12-14T01:34:25;3.32;99.05
77496;SHT31;66600;48.378;9.948;2023-12-14T01:34:56;3.35;99.04
77496;SHT31;66600;48.378;9.948;2023-12-14T01:35:27;3.34;99.04
77496;SHT31;66600;48.378;9.948;2023-12-14T01:35:59;3.34;99.04
77496;SHT31;66600;48.378;9.948;2023-12-14T01:36:30;3.34;99.14
77496;SHT31;66600;48.378;9.948;2023-12-14T01:37:00;3.31;99.13
77496;SHT31;66600;48.378;9.948;2023-12-14T01:37:30;3.32;99.15
77496;SHT31;66600;48.378;9.948;2023-12-14T01:38:01;3.32;99.15
77496;SHT31;66600;48.378;9.948;2023-12-14T01:38:31;3.31;99.15
77496;SHT31;66600;48.378;9.948;2023-12-14T01:39:01;3.31;99.19
77496;SHT31;66600;48.378;9.948;2023-12-14T01:39:31;3.30;99.34
77496;SHT31;66600;48.378;9.948;2023-12-14T01:40:01;3.30;99.35
77496;SHT31;66600;48.378;9.948;2023-12-14T01:40:32;3.30;99.32
77496;SHT31;66600;48.378;9.948;2023-12-14T01:41:02;3.27;99.32
77496;SHT31;66600;48.378;9.948;2023-12-14T01:41:33;3.24;99.36
77496;SHT31;66600;48.378;9.948;2023-12-14T01:42:03;3.21;99.44
77496;SHT31;66600;48.378;9.948;2023-12-14T01:42:33;3.22;99.61
77496;SHT31;66600;48.378;9.948;2023-12-14T01:43:07;3.20;99.68
77496;SHT31;66600;48.378;9.948;2023-12-14T01:43:38;3.18;99.74
77496;SHT31;66600;48.378;9.948;2023-12-14T01:44:08;3.17;99.86
77496;SHT31;66600;48.378;9.948;2023-12-14T01:44:38;3.11;99.92
77496;SHT31;66600;48.378;9.948;2023-12-14T01:45:09;3.13;99.96
77496;SHT31;66600;48.378;9.948;2023-12-14T01:45:39;3.11;99.99
77496;SHT31;66600;48.378;9.948;2023-12-14T01:46:10;3.13;99.95
77496;SHT31;66600;48.378;9.948;2023-12-14T01:46:40;3.13;99.99
77496;SHT31;66600;48.378;9.948;2023-12-14T01:47:10;3.17;99.99
77496;SHT31;66600;48.378;9.948;2023-12-14T01:47:41;3.18;99.99
77496;SHT31;66600;48.378;9.948;2023-12-14T01:48:11;3.21;99.99
77496;SHT31;66600;48.378;9.948;2023-12-14T01:48:42;3.22;99.95
77496;SHT31;66600;48.378;9.948;2023-12-14T01:49:12;3.25;99.90
77496;SHT31;66600;48.378;9.948;2023-12-14T01:49:42;3.27;99.89
77496;SHT31;66600;48.378;9.948;2023-12-14T01:50:13;3.28;99.81
77496;SHT31;66600;48.378;9.948;2023-12-14T01:50:43;3.31;99.72
77496;SHT31;66600;48.378;9.948;2023-12-14T01:51:13;3.34;99.65
77496;SHT31;66600;48.378;9.948;2023-12-14T01:51:44;3.32;99.58
77496;SHT31;66600;48.378;9.948;2023-12-14T01:52:14;3.35;99.54
77496;SHT31;66600;48.378;9.948;2023-12-14T01:52:44;3.36;99.52
77496;SHT31;66600;48.378;9.948;2023-12-14T01:53:14;3.42;99.42
77496;SHT31;66600;48.378;9.948;2023-12-14T01:53:45;3.39;99.43
77496;SHT31;66600;48.378;9.948;2023-12-14T01:54:16;3.39;99.38
77496;SHT31;66600;48.378;9.948;2023-12-14T01:54:46;3.41;99.41
77496;SHT31;66600;48.378;9.948;2023-12-14T01:55:16;3.42;99.39
77496;SHT31;66600;48.378;9.948;2023-12-14T01:55:47;3.43;99.38
77496;SHT31;66600;48.378;9.948;2023-12-14T01:56:17;3.45;99.39
77496;SHT31;66600;48.378;9.948;2023-12-14T01:56:47;3.45;99.38
77496;SHT31;66600;48.378;9.948;2023-12-14T01:57:18;3.43;99.37
77496;SHT31;66600;48.378;9.948;2023-12-14T01:57:48;3.45;99.26
77496;SHT31;66600;48.378;9.948;2023-12-14T01:58:18;3.43;99.32
77496;SHT31;66600;48.378;9.948;2023-12-14T01:58:49;3.43;99.35
77496;SHT31;66600;48.378;9.948;2023-12-14T01:59:19;3.46;99.35
77496;SHT31;66600;48.378;9.948;2023-12-14T01:59:49;3.46;99.32
77496;SHT31;66600;48.378;9.948;2023-12-14T02:00:43;3.48;99.36
77496;SHT31;66600;48.378;9.948;2023-12-14T02:01:18;3.49;99.32
77496;SHT31;66600;48.378;9.948;2023-12-14T02:01:52;3.51;99.29
77496;SHT31;66600;48.378;9.948;2023-12-14T02:02:23;3.49;99.30
77496;SHT31;66600;48.378;9.948;2023-12-14T02:02:53;3.49;99.24
77496;SHT31;66600;48.378;9.948;2023-12-14T02:03:23;3.49;99.24
77496;SHT31;66600;48.378;9.948;2023-12-14T02:03:54;3.51;99.21
77496;SHT31;66600;48.378;9.948;2023-12-14T02:04:24;3.54;99.19
77496;SHT31;66600;48.378;9.948;2023-12-14T02:04:55;3.54;99.20
77496;SHT31;66600;48.378;9.948;2023-12-14T02:05:25;3.54;99.21
77496;SHT31;66600;48.378;9.948;2023-12-14T02:05:56;3.55;99.22
77496;SHT31;66600;48.378;9.948;2023-12-14T02:06:27;3.54;99.17
77496;SHT31;66600;48.378;9.948;2023-12-14T02:06:58;3.54;99.16
77496;SHT31;66600;48.378;9.948;2023-12-14T02:07:28;3.56;99.20
77496;SHT31;66600;48.378;9.948;2023-12-14T02:07:58;3.54;99.17
77496;SHT31;66600;48.378;9.948;2023-12-14T02:08:29;3.52;99.17
77496;SHT31;66600;48.378;9.948;2023-12-14T02:08:59;3.54;99.18
77496;SHT31;66600;48.378;9.948;2023-12-14T02:09:29;3.55;99.17
77496;SHT31;66600;48.378;9.948;2023-12-14T02:09:59;3.55;99.16
77496;SHT31;66600;48.378;9.948;2023-12-14T02:10:30;3.58;99.19
77496;SHT31;66600;48.378;9.948;2023-12-14T02:11:00;3.56;99.14
77496;SHT31;66600;48.378;9.948;2023-12-14T02:11:30;3.59;99.11
77496;SHT31;66600;48.378;9.948;2023-12-14T02:12:00;3.58;99.04
77496;SHT31;66600;48.378;9.948;2023-12-14T02:12:31;3.58;99.09
77496;SHT31;66600;48.378;9.948;2023-12-14T02:13:03;3.58;99.04
77496;SHT31;66600;48.378;9.948;2023-12-14T02:13:34;3.58;99.04
77496;SHT31;66600;48.378;9.948;2023-12-14T02:14:10;3.58;99.04
77496;SHT31;66600;48.378;9.948;2023-12-14T02:14:40;3.56;99.01
77496;SHT31;66600;48.378;9.948;2023-12-14T02:15:11;3.56;99.03
77496;SHT31;66600;48.378;9.948;2023-12-14T02:15:41;3.58;99.01
77496;SHT31;66600;48.378;9.948;2023-12-14T02:16:12;3.56;98.99
77496;SHT31;66600;48.378;9.948;2023-12-14T02:16:42;3.55;98.92
77496;SHT31;66600;48.378;9.948;2023-12-14T02:17:12;3.52;98.95
77496;SHT31;66600;48.378;9.948;2023-12-14T02:17:42;3.54;99.02
77496;SHT31;66600;48.378;9.948;2023-12-14T02:18:13;3.54;99.03
77496;SHT31;66600;48.378;9.948;2023-12-14T02:18:43;3.52;98.99
77496;SHT31;66600;48.378;9.948;2023-12-14T02:19:14;3.55;98.95
77496;SHT31;66600;48.378;9.948;2023-12-14T02:19:45;3.52;98.94
77496;SHT31;66600;48.378;9.948;2023-12-14T02:20:15;3.49;98.90
77496;SHT31;66600;48.378;9.948;2023-12-14T02:20:45;3.51;98.92
77496;SHT31;66600;48.378;9.948;2023-12-14T02:21:15;3.48;98.97
77496;SHT31;66600;48.378;9.948;2023-12-14T02:21:46;3.48;98.97
77496;SHT31;66600;48.378;9.948;2023-12-14T02:22:16;3.48;98.94
77496;SHT31;66600;48.378;9.948;2023-12-14T02:22:50;3.48;98.97
77496;SHT31;66600;48.378;9.948;2023-12-14T02:23:21;3.46;98.97
77496;SHT31;66600;48.378;9.948;2023-12-14T02:23:51;3.46;99.04
77496;SHT31;66600;48.378;9.948;2023-12-14T02:24:21;3.48;99.02
77496;SHT31;66600;48.378;9.948;2023-12-14T02:24:52;3.46;99.03
77496;SHT31;66600;48.378;9.948;2023-12-14T02:25:22;3.46;98.93
77496;SHT31;66600;48.378;9.948;2023-12-14T02:25:53;3.48;98.90
77496;SHT31;66600;48.378;9.948;2023-12-14T02:26:23;3.46;98.88
77496;SHT31;66600;48.378;9.948;2023-12-14T02:26:53;3.45;98.84
77496;SHT31;66600;48.378;9.948;2023-12-14T02:27:24;3.46;98.89
77496;SHT31;66600;48.378;9.948;2023-12-14T02:27:54;3.45;98.83
77496;SHT31;66600;48.378;9.948;2023-12-14T02:28:24;3.45;98.84
77496;SHT31;66600;48.378;9.948;2023-12-14T02:28:54;3.46;98.83
77496;SHT31;66600;48.378;9.948;2023-12-14T02:29:25;3.43;98.75
77496;SHT31;66600;48.378;9.948;2023-12-14T02:29:55;3.43;98.89
77496;SHT31;66600;48.378;9.948;2023-12-14T02:30:25;3.45;98.89
77496;SHT31;66600;48.378;9.948;2023-12-14T02:30:55;3.43;98.83
77496;SHT31;66600;48.378;9.948;2023-12-14T02:31:26;3.43;98.90
77496;SHT31;66600;48.378;9.948;2023-12-14T02:31:56;3.41;98.88
77496;SHT31;66600;48.378;9.948;2023-12-14T02:32:26;3.43;98.91
77496;SHT31;66600;48.378;9.948;2023-12-14T02:32:56;3.43;98.89
77496;SHT31;66600;48.378;9.948;2023-12-14T02:33:27;3.43;98.90
77496;SHT31;66600;48.378;9.948;2023-12-14T02:33:57;3.45;98.82
77496;SHT31;66600;48.378;9.948;2023-12-14T02:34:27;3.45;98.84
77496;SHT31;66600;48.378;9.948;2023-12-14T02:34:57;3.46;98.83
77496;SHT31;66600;48.378;9.948;2023-12-14T02:35:28;3.46;98.78
77496;SHT31;66600;48.378;9.948;2023-12-14T02:35:59;3.48;98.77
77496;SHT31;66600;48.378;9.948;2023-12-14T02:36:29;3.46;98.67
77496;SHT31;66600;48.378;9.948;2023-12-14T02:36:59;3.43;98.70
77496;SHT31;66600;48.378;9.948;2023-12-14T02:37:30;3.43;98.75
77496;SHT31;66600;48.378;9.948;2023-12-14T02:38:00;3.45;98.77
77496;SHT31;66600;48.378;9.948;2023-12-14T02:38:30;3.42;98.74
77496;SHT31;66600;48.378;9.948;2023-12-14T02:39:01;3.42;98.71
77496;SHT31;66600;48.378;9.948;2023-12-14T02:39:31;3.42;98.74
77496;SHT31;66600;48.378;9.948;2023-12-14T02:40:01;3.43;98.75
77496;SHT31;66600;48.378;9.948;2023-12-14T02:40:31;3.42;98.71
77496;SHT31;66600;48.378;9.948;2023-12-14T02:41:02;3.41;98.62
77496;SHT31;66600;48.378;9.948;2023-12-14T02:41:32;3.41;98.71
77496;SHT31;66600;48.378;9.948;2023-12-14T02:42:03;3.38;98.76
77496;SHT31;66600;48.378;9.948;2023-12-14T02:42:33;3.35;98.77
77496;SHT31;66600;48.378;9.948;2023-12-14T02:43:04;3.38;98.76
77496;SHT31;66600;48.378;9.948;2023-12-14T02:43:34;3.36;98.75
77496;SHT31;66600;48.378;9.948;2023-12-14T02:44:04;3.34;98.74
77496;SHT31;66600;48.378;9.948;2023-12-14T02:44:34;3.34;98.75
77496;SHT31;66600;48.378;9.948;2023-12-14T02:45:07;3.30;98.84
77496;SHT31;66600;48.378;9.948;2023-12-14T02:45:37;3.30;98.83
77496;SHT31;66600;48.378;9.948;2023-12-14T02:46:08;3.24;98.90
77496;SHT31;66600;48.378;9.948;2023-12-14T02:46:38;3.25;98.89
77496;SHT31;66600;48.378;9.948;2023-12-14T02:47:08;3.27;98.81
77496;SHT31;66600;48.378;9.948;2023-12-14T02:47:38;3.27;98.81
77496;SHT31;66600;48.378;9.948;2023-12-14T02:48:09;3.28;98.74
77496;SHT31;66600;48.378;9.948;2023-12-14T02:48:40;3.22;98.79
77496;SHT31;66600;48.378;9.948;2023-12-14T02:49:11;3.21;98.83
77496;SHT31;66600;48.378;9.948;2023-12-14T02:49:41;3.20;98.84
77496;SHT31;66600;48.378;9.948;2023-12-14T02:50:11;3.17;98.92
77496;SHT31;66600;48.378;9.948;2023-12-14T02:50:41;3.18;98.85
77496;SHT31;66600;48.378;9.948;2023-12-14T02:51:12;3.15;98.97
77496;SHT31;66600;48.378;9.948;2023-12-14T02:51:43;3.17;98.99
77496;SHT31;66600;48.378;9.948;2023-12-14T02:52:14;3.17;98.97
77496;SHT31;66600;48.378;9.948;2023-12-14T02:52:44;3.13;99.00
77496;SHT31;66600;48.378;9.948;2023-12-14T02:53:14;3.11;99.05
77496;SHT31;66600;48.378;9.948;2023-12-14T02:53:44;3.10;99.03
77496;SHT31;66600;48.378;9.948;2023-12-14T02:54:15;3.14;98.94
77496;SHT31;66600;48.378;9.948;2023-12-14T02:54:45;3.11;98.93
77496;SHT31;66600;48.378;9.948;2023-12-14T02:55:15;3.13;98.99
77496;SHT31;66600;48.378;9.948;2023-12-14T02:55:45;3.13;98.94
77496;SHT31;66600;48.378;9.948;2023-12-14T02:56:16;3.10;98.94
77496;SHT31;66600;48.378;9.948;2023-12-14T02:56:46;3.08;98.93
77496;SHT31;66600;48.378;9.948;2023-12-14T02:57:16;3.07;98.99
77496;SHT31;66600;48.378;9.948;2023-12-14T02:57:46;3.05;99.03
77496;SHT31;66600;48.378;9.948;2023-12-14T02:58:18;3.08;99.00
77496;SHT31;66600;48.378;9.948;2023-12-14T02:58:48;3.07;99.00
77496;SHT31;66600;48.378;9.948;2023-12-14T02:59:21;3.10;98.95
77496;SHT31;66600;48.378;9.948;2023-12-14T02:59:51;3.10;98.99
77496;SHT31;66600;48.378;9.948;2023-12-14T03:00:21;3.08;99.03
77496;SHT31;66600;48.378;9.948;2023-12-14T03:00:52;3.08;99.02
77496;SHT31;66600;48.378;9.948;2023-12-14T03:01:22;3.10;99.02
77496;SHT31;66600;48.378;9.948;2023-12-14T03:01:52;3.08;99.04
77496;SHT31;66600;48.378;9.948;2023-12-14T03:02:22;3.11;99.02
77496;SHT31;66600;48.378;9.948;2023-12-14T03:02:53;3.14;99.02
77496;SHT31;66600;48.378;9.948;2023-12-14T03:03:23;3.15;99.04
77496;SHT31;66600;48.378;9.948;2023-12-14T03:03:53;3.15;99.01
77496;SHT31;66600;48.378;9.948;2023-12-14T03:04:24;3.17;98.99
77496;SHT31;66600;48.378;9.948;2023-12-14T03:04:54;3.18;99.03
77496;SHT31;66600;48.378;9.948;2023-12-14T03:05:24;3.18;99.04
77496;SHT31;66600;48.378;9.948;2023-12-14T03:05:54;3.18;99.07
77496;SHT31;66600;48.378;9.948;2023-12-14T03:06:25;3.20;99.06
77496;SHT31;66600;48.378;9.948;2023-12-14T03:06:55;3.18;99.06
77496;SHT31;66600;48.378;9.948;2023-12-14T03:07:26;3.17;99.06
77496;SHT31;66600;48.378;9.948;2023-12-14T03:07:56;3.20;99.04
77496;SHT31;66600;48.378;9.948;2023-12-14T03:08:26;3.18;99.08
77496;SHT31;66600;48.378;9.948;2023-12-14T03:08:57;3.14;99.00
77496;SHT31;66600;48.378;9.948;2023-12-14T03:09:27;3.15;98.99
77496;SHT31;66600;48.378;9.948;2023-12-14T03:09:57;3.15;99.07
77496;SHT31;66600;48.378;9.948;2023-12-14T03:10:28;3.14;99.05
77496;SHT31;66600;48.378;9.948;2023-12-14T03:10:58;3.13;99.04
77496;SHT31;66600;48.378;9.948;2023-12-14T03:11:28;3.14;99.04
77496;SHT31;66600;48.378;9.948;2023-12-14T03:11:59;3.13;99.04
77496;SHT31;66600;48.378;9.948;2023-12-14T03:12:29;3.10;99.11
77496;SHT31;66600;48.378;9.948;2023-12-14T03:13:00;3.13;99.11
77496;SHT31;66600;48.378;9.948;2023-12-14T03:13:30;3.11;99.16
77496;SHT31;66600;48.378;9.948;2023-12-14T03:14:00;3.08;99.15
77496;SHT31;66600;48.378;9.948;2023-12-14T03:14:31;3.08;99.19
77496;SHT31;66600;48.378;9.948;2023-12-14T03:15:01;3.08;99.25
77496;SHT31;66600;48.378;9.948;2023-12-14T03:15:32;3.08;99.25